Time;durP1;ratioP1;P1;durP2;ratioP2;P2;SDS_P1;SDS_P2;PMS_P1;PMS_P2;Temp;Humidity;BMP_temperature;BMP_pressure;BME280_temperature;BME280_humidity;BME280_pressure;Samples;Min_cycle;Max_cycle;Signal;HPM_P1;HPM_P2
2022/06/30 00:00:16;;;;;;;7.13;6.57;;;;;;;20.63;68.56;94892.44;5054967;28;20210;-70
2022/06/30 00:02:43;;;;;;;7.95;7.22;;;;;;;20.59;68.37;94894.50;5054403;28;20268;-70
2022/06/30 00:05:10;;;;;;;6.93;6.18;;;;;;;20.57;68.60;94894.09;5054278;28;20194;-70
2022/06/30 00:07:36;;;;;;;7.70;6.93;;;;;;;20.58;68.63;94884.47;5054405;28;20204;-70
2022/06/30 00:10:06;;;;;;;7.88;7.07;;;;;;;20.54;68.82;94892.94;5054382;28;20202;-70
2022/06/30 00:12:32;;;;;;;7.68;6.97;;;;;;;20.52;68.64;94891.78;5054642;28;20208;-69
2022/06/30 00:14:59;;;;;;;6.93;6.43;;;;;;;20.51;68.50;94902.19;5054151;28;20194;-69
2022/06/30 00:17:26;;;;;;;7.70;7.10;;;;;;;20.51;68.57;94893.78;5054196;28;20205;-69
2022/06/30 00:19:53;;;;;;;7.30;6.65;;;;;;;20.49;68.50;94898.19;5054176;28;20212;-69
2022/06/30 00:22:19;;;;;;;8.68;6.80;;;;;;;20.46;68.12;94890.63;5054190;28;20201;-70
2022/06/30 00:24:46;;;;;;;6.93;6.13;;;;;;;20.41;67.87;94887.09;5054521;28;20201;-70
2022/06/30 00:27:14;;;;;;;7.10;6.32;;;;;;;20.44;67.80;94893.84;5054032;28;20546;-71
2022/06/30 00:29:41;;;;;;;7.00;6.13;;;;;;;20.41;67.47;94883.50;5053607;28;20241;-72
2022/06/30 00:32:09;;;;;;;6.47;5.90;;;;;;;20.38;67.18;94876.72;5038341;28;20213;-72
2022/06/30 00:34:36;;;;;;;6.47;5.78;;;;;;;20.36;67.36;94878.34;5054211;28;20194;-72
2022/06/30 00:37:03;;;;;;;7.07;5.97;;;;;;;20.35;66.94;94882.38;5054002;28;20301;-71
2022/06/30 00:39:31;;;;;;;7.45;5.93;;;;;;;20.32;66.28;94886.00;5053740;28;20201;-71
2022/06/30 00:41:57;;;;;;;6.38;5.78;;;;;;;20.29;66.60;94879.22;5054313;28;20198;-71
2022/06/30 00:44:26;;;;;;;6.60;5.97;;;;;;;20.29;66.63;94881.25;5054209;28;20214;-71
2022/06/30 00:46:52;;;;;;;6.75;6.15;;;;;;;20.24;66.86;94884.53;5053938;28;20198;-71
2022/06/30 00:49:20;;;;;;;6.32;5.80;;;;;;;20.18;67.46;94878.59;5053994;28;20190;-70
2022/06/30 00:51:47;;;;;;;7.63;6.07;;;;;;;20.14;67.31;94880.63;5053965;28;20594;-71
2022/06/30 00:54:14;;;;;;;6.28;5.75;;;;;;;20.12;66.69;94881.06;5053692;28;20193;-71
2022/06/30 00:56:44;;;;;;;6.30;5.80;;;;;;;20.15;66.97;94893.41;5053501;28;20680;-71
2022/06/30 00:59:13;;;;;;;7.20;5.97;;;;;;;20.18;66.77;94884.19;5053632;28;20201;-71
2022/06/30 01:01:44;;;;;;;6.68;6.07;;;;;;;20.17;66.74;94891.00;5053904;28;20194;-71
2022/06/30 01:04:11;;;;;;;6.40;5.80;;;;;;;20.15;67.37;94883.03;5087132;28;20201;-71
2022/06/30 01:06:38;;;;;;;6.22;5.70;;;;;;;20.15;67.48;94877.44;5053773;28;20204;-71
2022/06/30 01:09:04;;;;;;;6.15;5.55;;;;;;;20.12;67.17;94869.88;5087530;28;20194;-71
2022/06/30 01:14:30;;;;;;;7.80;6.45;;;;;;;20.07;67.06;94881.53;4977381;28;20735;-70
2022/06/30 01:16:58;;;;;;;6.93;6.13;;;;;;;20.04;66.88;94884.38;4977264;28;20660;-70
2022/06/30 01:19:25;;;;;;;7.18;6.38;;;;;;;19.94;67.58;94877.69;5009320;28;20235;-70
2022/06/30 01:22:03;;;;;;;7.38;5.88;;;;;;;19.90;68.08;94882.56;5054366;28;20603;-70
2022/06/30 01:24:30;;;;;;;6.15;5.68;;;;;;;19.90;67.92;94877.75;5054600;28;20190;-70
2022/06/30 01:26:57;;;;;;;6.80;6.05;;;;;;;19.89;67.88;94875.34;5053508;28;20197;-70
2022/06/30 01:29:24;;;;;;;6.78;6.05;;;;;;;19.81;67.99;94874.63;5070155;28;20286;-70
2022/06/30 01:31:51;;;;;;;6.75;6.07;;;;;;;19.72;68.09;94877.16;5091103;28;20193;-70
2022/06/30 01:34:18;;;;;;;6.45;5.85;;;;;;;19.70;68.57;94885.16;5060862;28;20220;-70
2022/06/30 01:36:45;;;;;;;7.72;6.35;;;;;;;19.68;68.97;94880.00;5060532;28;20221;-70
2022/06/30 01:39:13;;;;;;;6.18;5.57;;;;;;;19.69;68.69;94884.38;5094240;28;20196;-70
2022/06/30 01:41:40;;;;;;;7.63;5.68;;;;;;;19.62;68.36;94876.06;5060507;28;20546;-70
2022/06/30 01:44:06;;;;;;;6.13;5.63;;;;;;;19.54;68.31;94873.72;5094171;28;20205;-71
2022/06/30 01:46:34;;;;;;;6.65;6.05;;;;;;;19.46;68.49;94873.81;5060466;28;20212;-71
2022/06/30 01:49:01;;;;;;;9.38;6.05;;;;;;;19.40;68.54;94872.66;5060271;28;20200;-70
2022/06/30 01:51:27;;;;;;;8.27;5.68;;;;;;;19.37;68.58;94869.91;5060065;28;20197;-70
2022/06/30 01:53:54;;;;;;;6.70;6.10;;;;;;;19.33;68.82;94867.13;5060943;28;20205;-71
2022/06/30 01:56:22;;;;;;;6.80;6.05;;;;;;;19.29;68.56;94871.97;5093530;28;20212;-70
2022/06/30 01:58:51;;;;;;;6.78;5.97;;;;;;;19.28;69.09;94866.78;5077648;28;20173;-71
2022/06/30 02:01:18;;;;;;;6.40;5.80;;;;;;;19.33;69.31;94871.94;5060169;28;20209;-71
2022/06/30 02:03:44;;;;;;;9.57;6.45;;;;;;;19.34;69.40;94879.09;5059874;28;20207;-71
2022/06/30 02:06:11;;;;;;;8.02;6.47;;;;;;;19.34;69.80;94873.50;5093350;28;20189;-71
2022/06/30 02:08:38;;;;;;;6.40;5.90;;;;;;;19.30;70.17;94873.56;5060142;28;20196;-71
2022/06/30 02:11:05;;;;;;;6.90;6.20;;;;;;;19.28;70.21;94866.78;5060228;28;20199;-71
2022/06/30 02:13:33;;;;;;;7.25;6.53;;;;;;;19.34;69.92;94874.31;5059575;28;20205;-71
2022/06/30 02:16:00;;;;;;;6.90;6.25;;;;;;;19.33;70.21;94880.31;5060259;28;20229;-71
2022/06/30 02:18:26;;;;;;;6.70;6.10;;;;;;;19.31;69.99;94877.94;5059720;28;20193;-71
2022/06/30 02:20:53;;;;;;;6.90;5.97;;;;;;;19.26;69.71;94880.38;5093213;28;20201;-71
2022/06/30 02:23:20;;;;;;;6.97;6.35;;;;;;;19.20;69.83;94877.22;5093059;28;20185;-71
2022/06/30 02:25:47;;;;;;;8.27;6.38;;;;;;;19.18;69.87;94877.66;5059760;28;20223;-71
2022/06/30 02:28:14;;;;;;;6.97;6.03;;;;;;;19.10;69.95;94878.94;5089977;28;20238;-71
2022/06/30 02:30:42;;;;;;;6.78;6.13;;;;;;;19.04;70.01;94885.38;5056141;28;20202;-71
2022/06/30 02:33:08;;;;;;;7.90;6.28;;;;;;;19.08;70.25;94886.13;5056398;28;20209;-71
2022/06/30 02:35:35;;;;;;;9.32;6.57;;;;;;;19.09;70.07;94884.91;5056776;28;20186;-71
2022/06/30 02:38:10;;;;;;;6.72;6.13;;;;;;;19.09;70.25;94884.91;5056607;28;20198;-71
2022/06/30 02:40:37;;;;;;;7.32;6.35;;;;;;;19.11;70.02;94888.13;5056174;28;20209;-71
2022/06/30 02:43:04;;;;;;;7.93;6.60;;;;;;;19.10;70.44;94886.50;5055921;28;20197;-71
2022/06/30 02:45:30;;;;;;;8.10;6.90;;;;;;;19.08;70.47;94880.53;5055650;28;20198;-71
2022/06/30 02:47:59;;;;;;;7.32;6.50;;;;;;;19.00;70.23;94889.00;5057080;28;20196;-71
2022/06/30 02:50:25;;;;;;;9.95;7.45;;;;;;;18.96;70.31;94879.84;5055580;28;20247;-71
2022/06/30 02:52:52;;;;;;;7.97;7.15;;;;;;;18.95;70.73;94880.25;5055614;28;20209;-70
2022/06/30 02:55:19;;;;;;;10.38;6.75;;;;;;;18.96;70.38;94888.22;5056789;28;20201;-71
2022/06/30 02:57:46;;;;;;;7.35;6.63;;;;;;;18.95;70.74;94892.25;5055363;28;20218;-70
2022/06/30 03:00:14;;;;;;;9.30;6.80;;;;;;;18.97;70.78;94895.41;5089638;28;20206;-70
2022/06/30 03:02:41;;;;;;;9.35;6.55;;;;;;;18.96;70.41;94893.03;5055651;28;20541;-70
2022/06/30 03:05:10;;;;;;;10.40;6.82;;;;;;;18.90;69.76;94895.44;5055341;28;20542;-71
2022/06/30 03:07:37;;;;;;;9.95;8.30;;;;;;;18.84;69.79;94885.91;5055255;28;20206;-70
2022/06/30 03:10:04;;;;;;;8.75;7.13;;;;;;;18.82;69.81;94887.53;5056479;28;20186;-71
2022/06/30 03:12:31;;;;;;;7.85;6.65;;;;;;;18.82;70.10;94881.97;5055413;28;20201;-70
2022/06/30 03:14:58;;;;;;;9.25;6.22;;;;;;;18.79;70.20;94889.16;5055088;28;20208;-71
2022/06/30 03:17:25;;;;;;;6.95;6.25;;;;;;;18.83;70.61;94886.34;5055275;28;20226;-70
2022/06/30 03:19:52;;;;;;;7.10;6.43;;;;;;;18.85;70.53;94879.13;5055979;28;20237;-70
2022/06/30 03:22:20;;;;;;;7.75;6.75;;;;;;;18.88;70.95;94881.13;5055487;28;20212;-70
2022/06/30 03:24:47;;;;;;;11.27;6.97;;;;;;;18.93;70.92;94877.06;5055462;28;20198;-70
2022/06/30 03:27:14;;;;;;;8.38;6.45;;;;;;;18.94;70.49;94882.25;5055397;28;20201;-70
2022/06/30 03:29:41;;;;;;;9.63;6.90;;;;;;;18.96;70.77;94884.66;5054601;28;20225;-70
2022/06/30 03:32:08;;;;;;;7.10;6.40;;;;;;;18.96;70.79;94879.06;5056008;28;20186;-70
2022/06/30 03:34:35;;;;;;;7.53;6.70;;;;;;;18.93;70.47;94882.66;5055307;28;20202;-70
2022/06/30 03:37:01;;;;;;;8.55;7.20;;;;;;;18.93;70.17;94882.66;5088644;28;20210;-70
2022/06/30 03:39:30;;;;;;;13.02;7.40;;;;;;;18.91;70.45;94885.06;5054983;28;20577;-70
2022/06/30 03:41:56;;;;;;;9.43;7.00;;;;;;;18.91;70.17;94880.25;5055278;28;20603;-71
2022/06/30 03:44:23;;;;;;;8.23;7.00;;;;;;;18.95;70.72;94891.41;5055300;28;20197;-72
2022/06/30 03:46:50;;;;;;;9.20;7.60;;;;;;;18.94;70.57;94887.03;5054863;28;20208;-71
2022/06/30 03:49:17;;;;;;;10.23;7.88;;;;;;;18.94;71.02;94889.84;5054442;28;20198;-72
2022/06/30 03:51:43;;;;;;;9.38;7.03;;;;;;;18.99;70.72;94886.59;5055752;28;20185;-72
2022/06/30 03:54:10;;;;;;;8.38;7.05;;;;;;;19.05;71.02;94895.34;5054482;28;20198;-71
2022/06/30 03:56:38;;;;;;;7.75;7.00;;;;;;;19.05;69.87;94890.53;5054611;28;20228;-71
2022/06/30 03:59:05;;;;;;;7.80;6.30;;;;;;;19.04;68.95;94891.75;5055616;28;20174;-71
2022/06/30 04:01:32;;;;;;;9.30;6.40;;;;;;;19.06;69.54;94896.91;5054603;28;20624;-71
2022/06/30 04:03:59;;;;;;;8.05;6.70;;;;;;;19.09;69.93;94896.91;5055180;28;20542;-71
2022/06/30 04:06:25;;;;;;;8.35;6.63;;;;;;;19.10;69.50;94897.69;5054656;28;20578;-71
2022/06/30 04:08:52;;;;;;;9.15;7.13;;;;;;;19.13;70.19;94900.44;5054792;28;20201;-71
2022/06/30 04:11:19;;;;;;;9.65;7.07;;;;;;;19.14;71.06;94904.84;5055261;28;20198;-71
2022/06/30 04:13:48;;;;;;;8.10;6.82;;;;;;;19.13;70.62;94903.25;5055071;28;20193;-71
2022/06/30 04:16:14;;;;;;;8.38;6.90;;;;;;;19.11;70.56;94899.28;5054962;28;20213;-71
2022/06/30 04:18:41;;;;;;;9.43;7.70;;;;;;;19.12;70.35;94903.66;5054710;28;20197;-71
2022/06/30 04:21:08;;;;;;;8.68;7.63;;;;;;;19.13;69.83;94902.44;5055417;28;20194;-71
2022/06/30 04:23:35;;;;;;;8.98;6.95;;;;;;;19.13;69.71;94897.66;5055327;28;20178;-73
2022/06/30 04:26:02;;;;;;;7.57;6.88;;;;;;;19.15;68.76;94891.66;5054571;28;20301;-71
2022/06/30 04:28:28;;;;;;;7.35;6.65;;;;;;;19.19;68.44;94887.63;5053981;28;20232;-71
2022/06/30 04:33:41;;;;;;;7.80;6.63;;;;;;;19.24;68.83;94894.75;5087748;28;20280;-71
2022/06/30 04:36:08;;;;;;;6.60;6.00;;;;;;;19.29;68.07;94899.13;5054047;28;20202;-71
2022/06/30 04:38:35;;;;;;;8.25;5.80;;;;;;;19.35;67.27;94897.47;5054250;28;20225;-70
2022/06/30 04:43:45;;;;;;;6.53;5.65;;;;;;;19.41;67.87;94896.59;5087807;28;20190;-74
2022/06/30 04:46:32;;;;;;;6.10;5.63;;;;;;;19.45;68.25;94902.97;5054486;28;20521;-72
2022/06/30 04:48:59;;;;;;;9.18;6.22;;;;;;;19.48;68.25;94902.13;5054901;28;20553;-71
2022/06/30 04:51:26;;;;;;;7.72;6.97;;;;;;;19.51;68.64;94899.72;5088027;28;20213;-71
2022/06/30 04:53:53;;;;;;;10.63;7.53;;;;;;;19.54;68.58;94904.50;5055288;28;20627;-71
2022/06/30 04:56:20;;;;;;;9.00;8.10;;;;;;;19.61;67.77;94901.63;5054626;28;20197;-71
2022/06/30 04:58:47;;;;;;;9.38;8.50;;;;;;;19.66;67.51;94901.97;5054454;28;20201;-71
2022/06/30 05:01:14;;;;;;;13.00;11.18;;;;;;;19.71;68.69;94906.31;5054816;28;20544;-71
2022/06/30 05:03:42;;;;;;;14.32;11.25;;;;;;;19.72;68.94;94907.94;5087966;28;20259;-71
2022/06/30 05:06:09;;;;;;;10.43;9.27;;;;;;;19.76;68.49;94903.09;5055966;28;20193;-71
2022/06/30 05:08:36;;;;;;;11.10;10.05;;;;;;;19.81;67.87;94901.84;5058400;28;20205;-71
2022/06/30 05:11:03;;;;;;;10.95;9.82;;;;;;;19.84;67.52;94903.81;5058274;28;20189;-71
2022/06/30 05:13:30;;;;;;;9.43;8.57;;;;;;;19.88;67.25;94907.34;5058033;28;20303;-70
2022/06/30 05:15:57;;;;;;;9.90;9.00;;;;;;;19.92;66.72;94913.69;5058323;28;20198;-72
2022/06/30 05:18:26;;;;;;;10.93;9.95;;;;;;;19.94;66.86;94912.06;5057835;28;20275;-72
2022/06/30 05:20:55;;;;;;;9.73;8.93;;;;;;;20.00;66.63;94911.59;5091432;28;20198;-72
2022/06/30 05:23:22;;;;;;;9.45;8.55;;;;;;;20.03;66.83;94911.56;5057434;28;20210;-71
2022/06/30 05:28:29;;;;;;;12.00;9.98;;;;;;;20.03;68.33;94922.75;5044566;28;20226;-71
2022/06/30 05:30:56;;;;;;;9.68;8.77;;;;;;;20.08;67.57;94919.53;5091422;28;20201;-71
2022/06/30 05:33:23;;;;;;;10.00;9.10;;;;;;;20.09;67.67;94921.09;5057354;28;20201;-71
2022/06/30 05:35:53;;;;;;;10.95;9.70;;;;;;;20.10;67.88;94921.88;5058034;28;20208;-74
2022/06/30 05:38:22;;;;;;;9.00;8.23;;;;;;;20.11;67.10;94920.66;5091264;28;20225;-72
2022/06/30 05:40:48;;;;;;;9.07;8.10;;;;;;;20.12;66.63;94923.06;5058081;28;20297;-74
2022/06/30 05:43:16;;;;;;;8.80;8.00;;;;;;;20.18;66.89;94928.97;5091494;28;20202;-74
2022/06/30 05:45:45;;;;;;;10.05;9.15;;;;;;;20.24;67.12;94929.34;5057611;28;20201;-71
2022/06/30 05:48:12;;;;;;;10.95;9.57;;;;;;;20.32;67.18;94930.81;5057963;28;20525;-72
2022/06/30 05:50:39;;;;;;;12.40;9.55;;;;;;;20.33;67.40;94936.00;5057339;28;20645;-72
2022/06/30 05:53:05;;;;;;;10.60;9.50;;;;;;;20.35;67.52;94935.59;5057842;28;20487;-72
2022/06/30 05:55:34;;;;;;;10.07;8.93;;;;;;;20.40;66.89;94929.50;5057283;28;20216;-72
2022/06/30 05:58:03;;;;;;;9.82;8.70;;;;;;;20.47;67.22;94929.41;5057686;28;20202;-72
2022/06/30 06:00:31;;;;;;;10.93;9.73;;;;;;;20.48;67.44;94933.81;5057002;28;20209;-72
2022/06/30 06:02:59;;;;;;;10.82;9.88;;;;;;;20.52;67.27;94936.63;5090810;28;20198;-73
2022/06/30 06:05:26;;;;;;;10.38;9.38;;;;;;;20.52;67.74;94931.81;5057204;28;20553;-73
2022/06/30 06:07:53;;;;;;;11.25;9.95;;;;;;;20.54;67.72;94934.16;5056705;28;20193;-73
2022/06/30 06:10:20;;;;;;;9.88;8.98;;;;;;;20.59;67.52;94934.50;5058189;28;20201;-70
2022/06/30 06:12:48;;;;;;;19.33;17.33;;;;;;;20.65;67.42;94932.00;5090830;28;20198;-71
2022/06/30 06:15:15;;;;;;;19.38;17.48;;;;;;;20.71;67.21;94932.34;5056982;28;20280;-71
2022/06/30 06:17:43;;;;;;;17.48;15.75;;;;;;;20.77;67.37;94939.88;5089871;28;20220;-71
2022/06/30 06:20:11;;;;;;;16.67;15.07;;;;;;;20.81;67.43;94942.63;5057465;28;20202;-70
2022/06/30 06:22:38;;;;;;;15.82;13.82;;;;;;;20.86;67.83;94950.53;5057159;28;20618;-70
2022/06/30 06:25:06;;;;;;;12.27;10.50;;;;;;;20.90;67.92;94942.88;5056810;28;20194;-70
2022/06/30 06:27:33;;;;;;;12.23;11.00;;;;;;;20.99;67.50;94942.31;5056802;28;20625;-68
2022/06/30 06:30:03;;;;;;;14.00;11.77;;;;;;;21.05;67.63;94943.44;5056277;28;20295;-69
2022/06/30 06:32:29;;;;;;;11.82;10.48;;;;;;;21.10;67.72;94943.78;5056112;28;20239;-70
2022/06/30 06:34:56;;;;;;;11.68;10.48;;;;;;;21.15;67.72;94937.69;5056579;28;20201;-70
2022/06/30 06:37:23;;;;;;;10.80;9.80;;;;;;;21.22;67.28;94933.97;5056079;28;20557;-73
2022/06/30 06:39:50;;;;;;;13.00;9.95;;;;;;;21.25;67.26;94935.13;5056684;28;20189;-70
2022/06/30 06:42:17;;;;;;;9.95;8.95;;;;;;;21.29;67.78;94935.88;5056624;28;20190;-69
2022/06/30 06:44:44;;;;;;;10.63;9.73;;;;;;;21.32;67.66;94932.22;5056333;28;20205;-73
2022/06/30 06:47:13;;;;;;;10.13;9.13;;;;;;;21.37;67.34;94926.13;5057610;28;20244;-72
2022/06/30 06:49:40;;;;;;;11.85;10.55;;;;;;;21.41;67.25;94926.88;5056340;28;20634;-73
2022/06/30 06:52:08;;;;;;;11.63;9.80;;;;;;;21.43;67.03;94924.44;5056982;28;20198;-70
2022/06/30 06:54:35;;;;;;;9.80;8.77;;;;;;;21.45;67.03;94918.38;5089473;28;20216;-70
2022/06/30 06:57:01;;;;;;;11.13;9.93;;;;;;;21.49;66.93;94919.91;5055972;28;20198;-70
2022/06/30 06:59:28;;;;;;;9.98;9.10;;;;;;;21.52;67.03;94921.06;5055604;28;20209;-70
2022/06/30 07:01:55;;;;;;;12.90;10.20;;;;;;;21.53;67.00;94922.66;5056597;28;20186;-69
2022/06/30 07:04:23;;;;;;;11.77;10.38;;;;;;;21.56;66.70;94913.38;5089563;28;20186;-70
2022/06/30 07:06:50;;;;;;;10.18;7.93;;;;;;;21.58;66.34;94914.53;5056256;28;20194;-70
2022/06/30 07:09:17;;;;;;;11.57;9.80;;;;;;;21.62;65.74;94920.09;5055952;28;20193;-69
2022/06/30 07:11:44;;;;;;;10.50;9.30;;;;;;;21.66;65.57;94914.41;5055737;28;20194;-69
2022/06/30 07:14:11;;;;;;;12.25;8.60;;;;;;;21.66;64.57;94914.41;5055651;28;20205;-71
2022/06/30 07:16:37;;;;;;;11.32;10.13;;;;;;;21.68;64.81;94911.97;5055526;28;20204;-73
2022/06/30 07:19:04;;;;;;;10.13;9.13;;;;;;;21.72;64.67;94912.72;5089400;28;20206;-73
2022/06/30 07:21:32;;;;;;;10.23;9.35;;;;;;;21.75;64.51;94909.03;5056698;28;20202;-71
2022/06/30 07:23:59;;;;;;;8.48;7.68;;;;;;;21.79;64.47;94913.38;5055563;28;20209;-71
2022/06/30 07:26:26;;;;;;;10.00;9.00;;;;;;;21.85;64.25;94916.47;5088850;28;20200;-71
2022/06/30 07:28:53;;;;;;;9.48;8.40;;;;;;;21.89;64.75;94908.75;5054613;28;20244;-70
2022/06/30 07:31:20;;;;;;;11.00;8.80;;;;;;;21.92;64.48;94909.94;5054692;28;20208;-70
2022/06/30 07:33:47;;;;;;;10.48;9.48;;;;;;;21.98;64.97;94911.00;5055058;28;20193;-70
2022/06/30 07:36:14;;;;;;;9.25;8.35;;;;;;;22.06;64.59;94902.00;5055481;28;20499;-69
2022/06/30 07:38:44;;;;;;;9.13;8.23;;;;;;;22.09;64.12;94909.56;5055286;28;20229;-70
2022/06/30 07:41:11;;;;;;;8.68;7.95;;;;;;;22.13;64.06;94905.91;5055083;28;20593;-69
2022/06/30 07:43:38;;;;;;;9.63;8.73;;;;;;;22.16;63.99;94905.88;5088771;28;20205;-70
2022/06/30 07:46:05;;;;;;;8.55;7.65;;;;;;;22.18;63.93;94906.22;5055041;28;20208;-70
2022/06/30 07:48:31;;;;;;;8.50;7.80;;;;;;;22.20;63.93;94903.78;5055566;28;20193;-70
2022/06/30 07:50:58;;;;;;;8.75;7.68;;;;;;;22.24;63.46;94904.50;5055401;28;20197;-69
2022/06/30 07:53:25;;;;;;;8.35;7.55;;;;;;;22.29;63.11;94903.19;5054922;28;20198;-71
2022/06/30 07:55:53;;;;;;;9.43;8.32;;;;;;;22.34;63.12;94899.88;5089177;28;20201;-73
2022/06/30 07:58:20;;;;;;;8.30;7.60;;;;;;;22.44;63.17;94895.25;5055207;28;20217;-71
2022/06/30 08:00:47;;;;;;;8.95;8.13;;;;;;;22.56;62.01;94898.19;5055370;28;20186;-71
2022/06/30 08:03:13;;;;;;;10.50;8.05;;;;;;;22.63;62.52;94902.09;5054980;28;20198;-71
2022/06/30 08:05:40;;;;;;;9.02;8.13;;;;;;;22.70;62.73;94899.13;5054608;28;20214;-71
2022/06/30 08:08:07;;;;;;;8.73;7.88;;;;;;;22.73;62.19;94901.84;5054437;28;20197;-71
2022/06/30 08:10:34;;;;;;;8.55;7.63;;;;;;;22.80;62.58;94900.88;5088362;28;20212;-70
2022/06/30 08:13:02;;;;;;;8.77;7.95;;;;;;;22.87;63.71;94897.09;5054754;28;20201;-70
2022/06/30 08:15:29;;;;;;;9.20;8.23;;;;;;;22.95;62.49;94896.56;5054633;28;20201;-70
2022/06/30 08:17:55;;;;;;;8.48;7.78;;;;;;;22.96;61.19;94892.50;5054793;28;20217;-70
2022/06/30 08:20:22;;;;;;;8.95;8.05;;;;;;;23.02;59.25;94896.38;5054525;28;20694;-70
2022/06/30 08:22:50;;;;;;;8.35;7.68;;;;;;;23.08;58.65;94890.22;5054578;28;20198;-70
2022/06/30 08:25:16;;;;;;;8.45;7.70;;;;;;;23.13;57.19;94889.69;5054584;28;20206;-70
2022/06/30 08:27:43;;;;;;;8.18;7.50;;;;;;;23.14;57.86;94891.28;5054083;28;20202;-70
2022/06/30 08:30:12;;;;;;;8.50;7.20;;;;;;;23.17;56.61;94888.38;5087631;28;20233;-70
2022/06/30 08:32:40;;;;;;;9.70;7.90;;;;;;;23.18;56.82;94895.59;5055466;28;20186;-70
2022/06/30 08:35:07;;;;;;;7.85;7.15;;;;;;;23.22;56.69;94898.31;5054312;28;20204;-70
2022/06/30 08:37:34;;;;;;;8.45;7.60;;;;;;;23.38;57.39;94897.50;5054442;28;20193;-70
2022/06/30 08:42:44;;;;;;;8.45;7.53;;;;;;;23.60;55.95;94895.72;5088088;28;20610;-70
2022/06/30 08:45:17;;;;;;;9.65;7.55;;;;;;;23.76;56.47;94901.38;5054170;28;20202;-70
2022/06/30 08:47:45;;;;;;;8.25;7.35;;;;;;;23.85;56.26;94900.72;5053966;28;20209;-70
2022/06/30 08:50:13;;;;;;;8.98;7.93;;;;;;;23.89;56.74;94907.06;5088232;28;20197;-70
2022/06/30 08:52:45;;;;;;;9.05;7.85;;;;;;;23.95;54.85;94901.69;5054082;28;20204;-70
2022/06/30 08:55:13;;;;;;;10.35;9.20;;;;;;;23.92;54.77;94897.72;5054083;28;20194;-70
2022/06/30 08:57:42;;;;;;;8.98;8.07;;;;;;;23.91;54.32;94895.38;5053689;28;20209;-71
2022/06/30 09:00:10;;;;;;;10.45;8.85;;;;;;;24.03;56.19;94895.41;5054370;28;20200;-70
2022/06/30 09:02:38;;;;;;;8.98;8.07;;;;;;;24.16;54.41;94897.50;5053824;28;20209;-70
2022/06/30 09:05:06;;;;;;;9.38;8.20;;;;;;;24.19;55.03;94890.97;5054438;28;20194;-70
2022/06/30 09:07:34;;;;;;;9.60;8.60;;;;;;;24.43;55.21;94897.13;5054066;28;20284;-71
2022/06/30 09:10:00;;;;;;;8.13;7.40;;;;;;;24.53;55.29;94893.22;5054004;28;20206;-71
2022/06/30 09:12:27;;;;;;;8.10;7.28;;;;;;;24.65;55.56;94897.28;5054576;28;20504;-70
2022/06/30 09:14:55;;;;;;;7.97;7.10;;;;;;;24.81;53.01;94893.59;5054268;28;20194;-71
2022/06/30 09:17:24;;;;;;;7.93;6.95;;;;;;;24.87;52.88;94888.97;5053989;28;20202;-72
2022/06/30 09:19:58;;;;;;;9.02;7.50;;;;;;;24.95;52.67;94879.84;5053898;28;20226;-72
2022/06/30 09:22:27;;;;;;;7.75;6.82;;;;;;;25.05;52.33;94874.31;5054242;28;20575;-72
2022/06/30 09:24:55;;;;;;;7.70;6.90;;;;;;;25.08;53.90;94873.41;5053671;28;20208;-72
2022/06/30 09:27:24;;;;;;;9.93;6.07;;;;;;;25.19;52.54;94879.50;5087032;28;20197;-72
2022/06/30 09:29:53;;;;;;;7.10;6.32;;;;;;;25.36;50.15;94880.97;5053634;28;20233;-72
2022/06/30 09:32:20;;;;;;;6.70;6.10;;;;;;;25.40;51.21;94867.53;5054331;28;20201;-73
2022/06/30 09:34:48;;;;;;;7.50;6.05;;;;;;;25.51;49.53;94874.84;5087180;28;20201;-72
2022/06/30 09:37:19;;;;;;;7.18;6.47;;;;;;;25.67;49.35;94867.03;5053732;28;20205;-72
2022/06/30 09:39:47;;;;;;;6.55;6.00;;;;;;;25.81;51.65;94862.91;5053498;28;20232;-73
2022/06/30 09:42:14;;;;;;;6.60;6.00;;;;;;;25.84;48.65;94862.00;5053916;28;20529;-72
2022/06/30 09:44:41;;;;;;;7.57;6.30;;;;;;;25.79;47.54;94873.09;5054765;28;20208;-72
2022/06/30 09:47:10;;;;;;;6.50;6.00;;;;;;;25.73;48.95;94872.84;5053948;28;20616;-72
2022/06/30 09:49:39;;;;;;;6.85;6.18;;;;;;;25.82;51.09;94860.91;5087067;28;20247;-72
2022/06/30 09:52:18;;;;;;;7.05;6.47;;;;;;;25.93;51.71;94858.47;5053471;28;20194;-72
2022/06/30 09:54:54;;;;;;;7.97;6.43;;;;;;;26.19;48.87;94856.31;5057407;28;20205;-72
2022/06/30 09:57:22;;;;;;;7.22;6.53;;;;;;;26.33;48.00;94858.63;5057328;28;20531;-72
2022/06/30 09:59:58;;;;;;;7.07;6.15;;;;;;;26.42;49.17;94864.31;5057097;28;20229;-72
2022/06/30 10:02:30;;;;;;;6.82;6.13;;;;;;;26.49;48.79;94862.50;5057181;28;20193;-72
2022/06/30 10:04:58;;;;;;;6.90;6.20;;;;;;;26.46;49.58;94847.25;5057300;28;20248;-73
2022/06/30 10:07:27;;;;;;;7.95;6.28;;;;;;;26.50;48.35;94855.59;5090537;28;20277;-72
2022/06/30 10:09:54;;;;;;;6.40;5.80;;;;;;;26.61;49.42;94847.50;5057401;28;20193;-72
2022/06/30 10:12:23;;;;;;;9.98;6.30;;;;;;;26.68;47.16;94849.25;5056797;28;20212;-73
2022/06/30 10:14:52;;;;;;;8.23;5.75;;;;;;;26.70;46.07;94849.59;5090272;28;20198;-73
2022/06/30 10:17:20;;;;;;;6.47;5.88;;;;;;;26.71;46.53;94849.13;5056777;28;20206;-72
2022/06/30 10:19:47;;;;;;;7.32;6.53;;;;;;;26.73;49.12;94843.00;5056410;28;20214;-72
2022/06/30 10:22:15;;;;;;;6.70;6.10;;;;;;;26.75;48.58;94849.75;5057015;28;20197;-72
2022/06/30 10:24:45;;;;;;;6.70;6.10;;;;;;;26.75;47.76;94841.28;5057213;28;20205;-73
2022/06/30 10:27:13;;;;;;;6.60;5.70;;;;;;;26.83;46.28;94838.94;5056643;28;20198;-72
2022/06/30 10:29:41;;;;;;;5.95;5.38;;;;;;;26.88;46.59;94838.34;5056127;28;20233;-72
2022/06/30 10:32:12;;;;;;;6.75;6.15;;;;;;;26.97;47.30;94827.06;5056362;28;20198;-72
2022/06/30 10:34:44;;;;;;;6.50;5.90;;;;;;;27.08;46.99;94841.56;5057471;28;20198;-72
2022/06/30 10:37:17;;;;;;;5.90;5.22;;;;;;;27.14;49.67;94833.28;5056279;28;20209;-68
2022/06/30 10:39:49;;;;;;;5.70;5.18;;;;;;;27.21;44.14;94826.56;5056432;28;20284;-68
2022/06/30 10:42:43;;;;;;;5.60;5.10;;;;;;;27.23;43.34;94824.81;5057880;28;20198;-68
2022/06/30 10:45:37;;;;;;;6.15;5.13;;;;;;;27.28;46.17;94820.59;5052507;28;20201;-69
2022/06/30 10:48:06;;;;;;;5.38;4.90;;;;;;;27.41;45.18;94820.44;5055364;28;20213;-70
2022/06/30 10:50:34;;;;;;;5.00;4.60;;;;;;;27.50;42.89;94814.81;5056401;28;20229;-70
2022/06/30 10:53:02;;;;;;;4.85;4.35;;;;;;;27.55;42.50;94814.19;5057252;28;20197;-70
2022/06/30 10:55:30;;;;;;;5.93;5.03;;;;;;;27.53;43.84;94803.34;5055842;28;20198;-70
2022/06/30 10:58:06;;;;;;;5.00;4.63;;;;;;;27.59;41.89;94809.94;5056730;28;20198;-70
2022/06/30 11:00:51;;;;;;;6.38;5.20;;;;;;;27.64;43.65;94811.38;5056335;28;20217;-70
2022/06/30 11:04:00;;;;;;;5.30;4.80;;;;;;;27.72;42.86;94811.84;5056027;28;20197;-70
2022/06/30 11:07:07;;;;;;;5.15;4.65;;;;;;;27.77;41.46;94800.69;5090157;28;20197;-71
2022/06/30 11:10:04;;;;;;;5.75;5.05;;;;;;;27.78;42.74;94799.44;5089425;28;20537;-71
2022/06/30 11:13:00;;;;;;;4.97;4.50;;;;;;;27.91;39.83;94792.81;5089135;28;20193;-71
2022/06/30 11:15:52;;;;;;;5.55;4.72;;;;;;;27.91;43.13;94785.09;5055769;28;20221;-70
2022/06/30 11:18:20;;;;;;;5.40;4.10;;;;;;;28.01;39.43;94781.00;5055808;28;20229;-71
2022/06/30 11:20:46;;;;;;;6.63;4.88;;;;;;;28.05;39.85;94783.69;5055627;28;20194;-70
2022/06/30 11:23:13;;;;;;;4.30;3.95;;;;;;;28.10;39.54;94783.03;5055617;28;20205;-71
2022/06/30 11:28:30;;;;;;;4.63;4.22;;;;;;;28.04;41.78;94774.41;5089245;28;20225;-71
2022/06/30 11:30:56;;;;;;;4.70;4.28;;;;;;;28.11;41.00;94770.44;5055472;28;20558;-67
2022/06/30 11:33:23;;;;;;;4.70;4.18;;;;;;;28.22;40.60;94776.41;5055300;28;20201;-68
2022/06/30 11:36:09;;;;;;;4.90;4.60;;;;;;;28.24;40.42;94773.88;5055232;28;20202;-69
2022/06/30 11:38:36;;;;;;;4.82;4.35;;;;;;;28.29;38.42;94775.31;5055562;28;20233;-70
2022/06/30 11:43:53;;;;;;;4.57;4.15;;;;;;;28.40;38.74;94777.66;5088524;28;20366;-70
2022/06/30 11:46:20;;;;;;;4.50;4.10;;;;;;;28.48;38.79;94770.38;5088508;28;20240;-70
2022/06/30 11:48:48;;;;;;;5.43;4.20;;;;;;;28.49;39.73;94764.22;5054923;28;20260;-70
2022/06/30 11:51:15;;;;;;;4.53;4.07;;;;;;;28.54;40.69;94776.97;5054847;28;20255;-70
2022/06/30 11:53:42;;;;;;;4.90;4.30;;;;;;;28.57;39.95;94759.00;5054881;28;20206;-70
2022/06/30 11:56:09;;;;;;;4.85;4.35;;;;;;;28.62;36.64;94772.53;5055579;28;20197;-71